Otis Angb, MA

1:26 PM EST on November 24, 2014 (GMT -0500)
Cape Cod Coast Guard Air Station | Change Station
CLOSE
Current Station
Airport
Location: Cape Cod CGAS,
Elevation: 131 ft
Nearby Weather Stations
Active Advisory: Wind Advisory Active Notice: Public Information Statement

Elev 131 ft 41.66 °N, 70.52 °W | Updated 11 minutes ago

Overcast
Overcast
64 °F
Feels Like 64 °F
N
29
Wind Variable Wind from SSW
Gusts 40 mph

Today
High -- | Low -- °F
--% Chance of Precip.
Yesterday
High -- | Low -- °F
Precip. -- in
6:41 AM 4:15 PM
Waxing Crescent, 6% visible
Pressure 29.70 in
Visibility 3.0 miles
Clouds Overcast 600 ft
Dew Point 63 °F
Humidity 94%
Rainfall 0.00 in
Snow Depth Not available.
UV 1 out of 12
Pollen .10 out of 12
Air Quality Not available.
Flu Activity Not available.
METAR KFMH 241815Z AUTO 20025G35KT 3SM BR OVC006 18/17 A2970 RMK AO2

More Conditions Fewer Conditions

Pressure 29.70 in
Visibility 3.0 miles
Clouds Overcast 600 ft
Dew Point 63 °F
Humidity 94%
Rainfall 0.00 in
Snow Depth Not available.
UV 1 out of 12
Pollen .10 out of 12
Air Quality Not available.
Flu Activity Not available.
METAR KFMH 241815Z AUTO 20025G35KT 3SM BR OVC006 18/17 A2970 RMK AO2

More Conditions Fewer Conditions

10-Day Weather Forecast

Almanac

Astronomy

Nov. 24, 2014 Rise Set
Actual Time
Civil Twilight
Nautical Twilight
Astronomical Twilight
Moon
Length of Visible Light
Length of Day
Tomorrow will be .
, % of the Moon is Illuminated

Today's Extremes

State Highs State Lows

Community

WunderPhotos

Upload Photos

1,773,386 photos uploaded!

WunderBlogs® & News

Nearby

Air Quality

  Air Quality AQ Index Pollutant
Not available.

Snow Depth

Station Depth Elevation

Earthquake Activity

City Distance Mag. Time & Date
Minimum magnitude displayed is 2.5.

Coastal Water Temperatures

Place Temperature

Nearby Weather Stations